TimeCST,TemperatureF,Dew PointF,Humidity,Sea Level PressureIn,VisibilityMPH,Wind Direction,Wind SpeedMPH,Gust SpeedMPH,PrecipitationIn,Events,Conditions,WindDirDegrees,DateUTC
12:56 AM,51.1,50.0,96,30.02,10.0,NNW,3.5,-,N/A,,Clear,330,2012-12-06 06:56:00
1:56 AM,55.9,54.0,93,30.01,10.0,Calm,Calm,-,N/A,,Clear,0,2012-12-06 07:56:00
2:56 AM,55.0,52.0,89,29.99,10.0,Calm,Calm,-,N/A,,Clear,0,2012-12-06 08:56:00
3:56 AM,50.0,48.0,93,29.99,10.0,Calm,Calm,-,N/A,,Clear,0,2012-12-06 09:56:00
4:56 AM,54.0,52.0,93,29.99,10.0,NE,4.6,-,N/A,,Clear,40,2012-12-06 10:56:00
5:56 AM,54.0,51.1,90,30.00,10.0,ENE,5.8,-,N/A,,Scattered Clouds,70,2012-12-06 11:56:00
6:56 AM,54.0,51.1,90,30.01,10.0,NE,4.6,-,N/A,,Clear,50,2012-12-06 12:56:00
7:56 AM,57.9,53.1,84,30.02,10.0,East,6.9,-,N/A,,Clear,80,2012-12-06 13:56:00
8:56 AM,63.0,55.0,75,30.03,10.0,ESE,4.6,-,N/A,,Clear,110,2012-12-06 14:56:00
9:56 AM,69.1,55.9,63,30.02,10.0,ESE,5.8,-,N/A,,Clear,110,2012-12-06 15:56:00
10:56 AM,73.0,57.0,57,30.00,10.0,SSE,5.8,-,N/A,,Clear,150,2012-12-06 16:56:00
11:56 AM,75.9,55.0,48,29.97,10.0,SE,11.5,-,N/A,,Partly Cloudy,130,2012-12-06 17:56:00
12:56 PM,75.0,53.1,46,29.95,10.0,SE,11.5,-,N/A,,Clear,140,2012-12-06 18:56:00
1:56 PM,75.0,52.0,44,29.94,10.0,SE,8.1,-,N/A,,Partly Cloudy,140,2012-12-06 19:56:00
2:56 PM,75.9,51.1,42,29.93,10.0,SE,8.1,-,N/A,,Clear,130,2012-12-06 20:56:00
3:56 PM,75.0,53.1,46,29.93,10.0,ESE,6.9,-,N/A,,Scattered Clouds,120,2012-12-06 21:56:00
4:56 PM,69.1,54.0,58,29.94,10.0,ESE,5.8,-,N/A,,Clear,110,2012-12-06 22:56:00
5:56 PM,64.9,59.0,81,29.95,10.0,Calm,Calm,-,N/A,,Clear,0,2012-12-06 23:56:00
6:56 PM,60.1,57.0,90,29.96,10.0,Calm,Calm,-,N/A,,Clear,0,2012-12-07 00:56:00
7:56 PM,63.0,57.9,84,29.96,10.0,ENE,3.5,-,N/A,,Clear,60,2012-12-07 01:56:00
8:56 PM,57.0,55.0,93,29.97,10.0,Calm,Calm,-,N/A,,Mostly Cloudy,0,2012-12-07 02:56:00
9:56 PM,55.9,53.1,90,29.97,10.0,ENE,3.5,-,N/A,,Clear,70,2012-12-07 03:56:00
10:56 PM,61.0,55.0,81,29.96,10.0,East,8.1,-,N/A,,Clear,90,2012-12-07 04:56:00
11:56 PM,59.0,55.0,87,29.94,10.0,East,9.2,-,N/A,,Clear,90,2012-12-07 05:56:00